createdAt,value
2022-09-05T00:00:19.623Z,100.00
2022-09-05T00:03:14.974Z,100.00
2022-09-05T00:06:02.990Z,100.00
2022-09-05T00:08:43.812Z,100.00
2022-09-05T00:11:41.426Z,100.00
2022-09-05T00:15:14.278Z,100.00
2022-09-05T00:17:21.667Z,100.00
2022-09-05T00:24:18.945Z,100.00
2022-09-05T00:24:30.630Z,100.00
2022-09-05T00:25:57.153Z,100.00
2022-09-05T00:28:36.924Z,100.00
2022-09-05T00:31:55.307Z,100.00
2022-09-05T00:34:13.649Z,100.00
2022-09-05T00:36:46.899Z,100.00
2022-09-05T00:39:19.528Z,100.00
2022-09-05T00:41:50.542Z,100.00
2022-09-05T00:44:20.798Z,100.00
2022-09-05T00:46:56.951Z,100.00
2022-09-05T00:49:31.264Z,100.00
2022-09-05T00:52:07.641Z,100.00
2022-09-05T00:54:59.438Z,100.00
2022-09-05T00:57:37.687Z,100.00
2022-09-05T01:00:17.695Z,100.00
2022-09-05T01:03:21.135Z,100.00
2022-09-05T01:06:03.230Z,100.00
2022-09-05T01:09:08.071Z,100.00
2022-09-05T01:11:46.299Z,100.00
2022-09-05T01:14:49.082Z,100.00
2022-09-05T01:17:35.014Z,100.00
2022-09-05T01:20:19.443Z,100.00
2022-09-05T01:23:16.669Z,100.00
2022-09-05T01:26:05.190Z,100.00
2022-09-05T01:29:16.180Z,100.00
2022-09-05T01:31:38.756Z,100.00
2022-09-05T01:34:22.873Z,100.00
2022-09-05T01:37:08.568Z,100.00
2022-09-05T01:40:15.237Z,100.00
2022-09-05T01:42:55.685Z,100.00
2022-09-05T01:45:37.583Z,100.00
2022-09-05T01:48:15.319Z,100.00
2022-09-05T01:50:51.614Z,100.00
2022-09-05T01:53:34.324Z,100.00
2022-09-05T01:56:28.089Z,100.00
2022-09-05T01:59:07.570Z,100.00
2022-09-05T02:01:55.134Z,100.00
2022-09-05T02:04:52.552Z,100.00
2022-09-05T02:07:34.157Z,100.00
2022-09-05T02:10:37.480Z,100.00
2022-09-05T02:13:16.365Z,100.00
2022-09-05T02:15:59.208Z,100.00
2022-09-05T02:18:33.069Z,100.00
2022-09-05T02:21:03.335Z,100.00
2022-09-05T02:23:42.549Z,100.00
2022-09-05T02:26:19.413Z,100.00
2022-09-05T02:28:54.993Z,100.00
2022-09-05T02:31:31.006Z,100.00
2022-09-05T02:34:08.050Z,100.00
2022-09-05T02:36:44.159Z,100.00
2022-09-05T02:45:02.464Z,100.00
2022-09-05T02:45:17.101Z,100.00
2022-09-05T02:45:27.331Z,100.00
2022-09-05T02:48:15.759Z,100.00
2022-09-05T02:57:27.055Z,100.00
2022-09-05T02:57:36.862Z,100.00
2022-09-05T02:57:37.439Z,100.00
2022-09-05T03:00:13.990Z,100.00
2022-09-05T03:03:02.316Z,100.00
2022-09-05T03:05:35.865Z,100.00
2022-09-05T03:08:17.625Z,100.00
2022-09-05T03:11:23.822Z,100.00
2022-09-05T03:14:44.391Z,100.00
2022-09-05T03:17:47.768Z,100.00
2022-09-05T03:20:53.118Z,100.00
2022-09-05T03:24:06.265Z,100.00
2022-09-05T03:27:01.021Z,100.00
2022-09-05T03:30:04.351Z,100.00
2022-09-05T03:33:09.280Z,100.00
2022-09-05T03:36:13.268Z,100.00
2022-09-05T03:39:21.972Z,100.00
2022-09-05T03:42:15.002Z,100.00
2022-09-05T03:44:59.607Z,100.00
2022-09-05T03:47:58.409Z,100.00
2022-09-05T03:57:05.593Z,100.00
2022-09-05T03:57:28.163Z,100.00
2022-09-05T03:57:38.706Z,100.00
2022-09-05T04:00:09.367Z,100.00
2022-09-05T04:08:08.970Z,100.00
2022-09-05T04:08:17.689Z,100.00
2022-09-05T04:08:42.594Z,100.00
2022-09-05T04:11:17.206Z,100.00
2022-09-05T04:13:52.386Z,100.00
2022-09-05T04:16:25.733Z,100.00
2022-09-05T04:18:57.258Z,100.00
2022-09-05T04:21:28.953Z,100.00
2022-09-05T04:24:11.620Z,100.00
2022-09-05T04:26:51.731Z,100.00
2022-09-05T04:29:27.135Z,100.00
2022-09-05T04:32:17.602Z,100.00
2022-09-05T04:34:56.830Z,100.00
2022-09-05T04:37:55.118Z,100.00
2022-09-05T04:40:51.844Z,100.00
2022-09-05T04:43:29.080Z,100.00
2022-09-05T04:46:07.816Z,100.00
2022-09-05T04:48:39.088Z,100.00
2022-09-05T04:51:11.733Z,100.00
2022-09-05T04:54:05.025Z,100.00
2022-09-05T04:56:38.748Z,100.00
2022-09-05T05:02:16.429Z,100.00
2022-09-05T05:06:00.223Z,100.00
2022-09-05T05:06:10.850Z,100.00
2022-09-05T05:08:00.410Z,100.00
2022-09-05T05:14:53.810Z,100.00
2022-09-05T05:17:58.850Z,100.00
2022-09-05T05:18:16.110Z,100.00
2022-09-05T05:19:21.676Z,100.00
2022-09-05T05:21:52.923Z,100.00
2022-09-05T05:24:24.729Z,100.00
2022-09-05T05:26:58.865Z,100.00
2022-09-05T05:29:38.464Z,86.22
2022-09-05T05:32:07.977Z,96.54
2022-09-05T05:34:43.843Z,86.27
2022-09-05T05:37:19.403Z,73.62
2022-09-05T05:39:51.795Z,83.25
2022-09-05T05:42:24.033Z,75.22
2022-09-05T05:44:54.761Z,64.88
2022-09-05T05:47:31.488Z,64.45
2022-09-05T05:50:05.480Z,58.17
2022-09-05T05:52:53.488Z,54.69
2022-09-05T05:55:52.053Z,54.91
2022-09-05T05:58:45.157Z,49.27
2022-09-05T06:01:37.682Z,46.89
2022-09-05T06:04:45.186Z,48.25
2022-09-05T06:07:23.272Z,48.68
2022-09-05T06:14:48.389Z,46.76
2022-09-05T06:15:04.903Z,42.73
2022-09-05T06:17:02.110Z,43.76
2022-09-05T06:21:44.138Z,42.11
2022-09-05T06:23:39.262Z,38.70
2022-09-05T06:26:40.914Z,37.75
2022-09-05T06:29:18.905Z,36.14
2022-09-05T06:32:04.126Z,35.82
2022-09-05T06:35:00.008Z,39.22
2022-09-05T06:37:39.600Z,41.91
2022-09-05T06:40:17.366Z,44.70
2022-09-05T06:43:05.980Z,44.86
2022-09-05T06:45:58.534Z,46.43
2022-09-05T06:48:44.354Z,46.17
2022-09-05T06:52:28.738Z,48.17
2022-09-05T06:55:35.431Z,51.30
2022-09-05T06:58:50.517Z,55.51
2022-09-05T07:01:32.650Z,55.22
2022-09-05T07:05:23.767Z,52.72
2022-09-05T07:07:23.827Z,55.07
2022-09-05T07:10:00.336Z,52.11
2022-09-05T07:12:31.212Z,52.41
2022-09-05T07:15:09.479Z,57.56
2022-09-05T07:18:09.098Z,63.97
2022-09-05T07:21:17.080Z,67.06
2022-09-05T07:24:09.233Z,66.97
2022-09-05T07:26:52.072Z,70.20
2022-09-05T07:29:25.205Z,71.38
2022-09-05T07:31:57.265Z,74.20
2022-09-05T07:34:30.300Z,75.19
2022-09-05T07:37:15.346Z,71.97
2022-09-05T07:39:47.113Z,72.23
2022-09-05T07:42:20.796Z,72.12
2022-09-05T07:44:56.309Z,71.94
2022-09-05T07:47:28.680Z,66.30
2022-09-05T07:50:42.883Z,61.69
2022-09-05T07:56:56.722Z,54.94
2022-09-05T07:57:03.720Z,51.86
2022-09-05T07:58:41.663Z,50.62
2022-09-05T08:01:12.600Z,48.24
2022-09-05T08:03:43.060Z,46.77
2022-09-05T08:06:25.991Z,43.78
2022-09-05T08:09:39.959Z,42.44
2022-09-05T08:12:09.907Z,40.55
2022-09-05T08:14:46.001Z,38.24
2022-09-05T08:17:18.275Z,38.66
2022-09-05T08:20:12.765Z,38.36
2022-09-05T08:22:52.519Z,38.69
2022-09-05T08:25:27.636Z,37.04
2022-09-05T08:28:13.608Z,37.91
2022-09-05T08:30:45.868Z,37.15
2022-09-05T08:33:19.729Z,37.49
2022-09-05T08:35:53.048Z,40.97
2022-09-05T08:38:34.502Z,43.31
2022-09-05T08:41:17.328Z,44.90
2022-09-05T08:46:39.337Z,43.10
2022-09-05T08:46:50.975Z,42.88
2022-09-05T08:49:54.857Z,43.35
2022-09-05T08:52:31.432Z,42.95
2022-09-05T08:55:09.849Z,44.38
2022-09-05T08:58:05.422Z,42.27
2022-09-05T09:00:36.825Z,41.57
2022-09-05T09:03:15.733Z,41.31
2022-09-05T09:06:16.334Z,43.12
2022-09-05T09:09:01.050Z,41.88
2022-09-05T09:11:37.098Z,42.28
2022-09-05T09:14:50.151Z,43.28
2022-09-05T09:17:29.402Z,43.00
2022-09-05T09:20:14.405Z,43.82
2022-09-05T09:22:45.944Z,43.23
2022-09-05T09:25:17.835Z,46.32
2022-09-05T09:28:50.235Z,46.45
2022-09-05T09:31:10.881Z,46.21
2022-09-05T09:33:44.280Z,46.31
2022-09-05T09:36:30.240Z,47.66
2022-09-05T09:39:37.467Z,49.03
2022-09-05T09:42:32.224Z,51.25
2022-09-05T09:45:28.276Z,51.08
2022-09-05T09:48:30.499Z,48.95
2022-09-05T09:51:12.916Z,48.39
2022-09-05T09:53:57.829Z,46.00
2022-09-05T09:56:52.307Z,43.50
2022-09-05T09:59:54.517Z,41.26
2022-09-05T10:06:54.131Z,41.06
2022-09-05T10:10:45.728Z,40.23
2022-09-05T10:10:49.592Z,39.57
2022-09-05T10:12:29.913Z,40.58
2022-09-05T10:15:10.099Z,39.41
2022-09-05T10:18:36.571Z,41.81
2022-09-05T10:21:17.864Z,40.57
2022-09-05T10:24:19.722Z,40.19
2022-09-05T10:27:14.608Z,42.32
2022-09-05T10:29:50.071Z,42.93
2022-09-05T10:35:08.728Z,41.67
2022-09-05T10:35:27.355Z,40.25
2022-09-05T10:38:10.184Z,39.75
2022-09-05T10:41:21.568Z,40.28
2022-09-05T10:43:31.023Z,39.27
2022-09-05T10:46:08.600Z,39.66
2022-09-05T10:48:48.922Z,38.73
2022-09-05T10:51:29.722Z,38.94
2022-09-05T10:54:14.422Z,37.92
2022-09-05T10:56:47.711Z,39.18
2022-09-05T10:59:59.835Z,38.96
2022-09-05T11:02:27.745Z,38.14
2022-09-05T11:05:09.205Z,36.93
2022-09-05T11:07:42.683Z,38.04
2022-09-05T11:10:17.244Z,38.62
2022-09-05T11:12:58.191Z,39.01
2022-09-05T11:15:33.486Z,39.60
2022-09-05T11:18:04.806Z,40.33
2022-09-05T11:20:45.907Z,38.75
2022-09-05T11:23:21.002Z,39.30
2022-09-05T11:25:57.172Z,38.33
2022-09-05T11:28:33.579Z,40.58
2022-09-05T11:31:10.366Z,39.20
2022-09-05T11:39:49.192Z,37.50
2022-09-05T11:40:08.821Z,36.65
2022-09-05T11:40:39.161Z,36.42
2022-09-05T11:43:40.171Z,38.54
2022-09-05T11:46:30.043Z,39.67
2022-09-05T11:49:20.672Z,39.05
2022-09-05T11:52:23.838Z,36.29
2022-09-05T11:55:21.049Z,36.16
2022-09-05T11:58:44.241Z,36.29
2022-09-05T12:01:41.659Z,35.36
2022-09-05T12:03:59.353Z,34.58
2022-09-05T12:06:49.554Z,34.67
2022-09-05T12:09:31.200Z,34.20
2022-09-05T12:12:27.068Z,32.94
2022-09-05T12:15:24.468Z,32.58
2022-09-05T12:18:04.720Z,33.17
2022-09-05T12:20:57.150Z,33.12
2022-09-05T12:23:57.505Z,32.87
2022-09-05T12:27:44.346Z,33.70
2022-09-05T12:29:33.554Z,34.38
2022-09-05T12:33:50.761Z,32.60
2022-09-05T12:36:06.440Z,31.33
2022-09-05T12:41:42.465Z,31.51
2022-09-05T12:41:44.327Z,31.91
2022-09-05T12:44:38.903Z,31.56
2022-09-05T12:46:33.945Z,32.40
2022-09-05T12:49:08.234Z,32.54
2022-09-05T12:51:46.869Z,31.31
2022-09-05T12:54:33.294Z,32.24
2022-09-05T12:59:43.386Z,33.62
2022-09-05T13:03:05.220Z,29.91
2022-09-05T13:03:06.075Z,30.04
2022-09-05T13:05:52.557Z,32.26
2022-09-05T13:08:22.255Z,30.58
2022-09-05T13:14:47.088Z,31.12
2022-09-05T13:14:56.090Z,31.22
2022-09-05T13:16:41.257Z,31.66
2022-09-05T13:19:26.125Z,31.83
2022-09-05T13:21:57.319Z,31.32
2022-09-05T13:24:30.604Z,31.28
2022-09-05T13:27:05.601Z,28.34
2022-09-05T13:30:05.072Z,27.67
2022-09-05T13:38:08.165Z,27.10
2022-09-05T13:38:30.590Z,28.74
2022-09-05T13:38:47.609Z,29.27
2022-09-05T13:41:27.807Z,27.71
2022-09-05T13:44:00.480Z,28.71
2022-09-05T13:46:58.301Z,27.31
2022-09-05T13:49:32.228Z,27.55
2022-09-05T13:52:16.670Z,29.29
2022-09-05T13:54:51.265Z,28.96
2022-09-05T13:57:34.498Z,29.06
2022-09-05T14:00:28.895Z,30.63
2022-09-05T14:03:38.888Z,30.09
2022-09-05T14:06:47.539Z,30.16
2022-09-05T14:09:39.715Z,30.17
2022-09-05T14:12:16.540Z,30.96
2022-09-05T14:17:58.318Z,30.39
2022-09-05T14:20:49.383Z,29.30
2022-09-05T14:23:19.967Z,29.82
2022-09-05T14:25:53.946Z,28.75
2022-09-05T14:28:27.146Z,28.79
2022-09-05T14:33:25.268Z,29.16
2022-09-05T14:37:51.223Z,28.20
2022-09-05T14:37:58.395Z,27.70
2022-09-05T14:40:29.515Z,28.93
2022-09-05T14:43:24.520Z,28.03
2022-09-05T14:46:33.979Z,30.18
2022-09-05T14:49:28.816Z,31.67
2022-09-05T14:51:58.368Z,30.80
2022-09-05T15:00:34.502Z,27.89
2022-09-05T15:02:48.046Z,27.21
2022-09-05T15:03:05.347Z,28.35
2022-09-05T15:05:41.605Z,27.63
2022-09-05T15:08:30.548Z,26.66
2022-09-05T15:11:47.296Z,26.99
2022-09-05T15:13:57.278Z,27.32
2022-09-05T15:16:26.695Z,27.23
2022-09-05T15:18:56.208Z,27.08
2022-09-05T15:21:34.335Z,27.60
2022-09-05T15:24:14.654Z,27.86
2022-09-05T15:26:52.651Z,27.26
2022-09-05T15:29:23.212Z,29.11
2022-09-05T15:32:03.896Z,30.35
2022-09-05T15:34:38.761Z,29.80
2022-09-05T15:37:23.488Z,30.78
2022-09-05T15:40:02.347Z,32.20
2022-09-05T15:42:32.661Z,32.74
2022-09-05T15:45:10.552Z,31.99
2022-09-05T15:47:45.075Z,31.97
2022-09-05T15:50:22.004Z,32.83
2022-09-05T15:52:55.737Z,32.75
2022-09-05T15:55:25.088Z,33.98
2022-09-05T15:57:55.995Z,33.30
2022-09-05T16:00:42.349Z,33.60
2022-09-05T16:04:49.883Z,33.22
2022-09-05T16:10:50.219Z,33.56
2022-09-05T16:10:50.281Z,34.58
2022-09-05T16:12:14.081Z,33.88
2022-09-05T16:14:48.612Z,35.31
2022-09-05T16:23:15.488Z,36.05
2022-09-05T16:23:34.735Z,35.94
2022-09-05T16:23:41.755Z,36.53
2022-09-05T16:26:14.166Z,36.74
2022-09-05T16:28:49.887Z,36.91
2022-09-05T16:31:22.376Z,36.30
2022-09-05T16:33:50.432Z,36.48
2022-09-05T16:36:27.113Z,36.66
2022-09-05T16:39:00.940Z,36.74
2022-09-05T16:41:42.861Z,37.06
2022-09-05T16:44:14.697Z,37.00
2022-09-05T16:46:48.681Z,37.15
2022-09-05T16:49:41.781Z,37.10
2022-09-05T16:52:17.174Z,37.80
2022-09-05T16:54:51.600Z,36.88
2022-09-05T16:57:24.662Z,38.44
2022-09-05T16:59:52.388Z,38.48
2022-09-05T17:02:28.446Z,38.20
2022-09-05T17:05:11.145Z,37.81
2022-09-05T17:08:02.867Z,37.92
2022-09-05T17:10:34.723Z,37.89
2022-09-05T17:13:04.659Z,37.77
2022-09-05T17:15:36.873Z,38.11
2022-09-05T17:18:20.193Z,39.80
2022-09-05T17:20:54.751Z,40.30
2022-09-05T17:27:59.756Z,40.34
2022-09-05T17:29:30.408Z,40.37
2022-09-05T17:32:47.717Z,42.72
2022-09-05T17:35:27.677Z,44.03
2022-09-05T17:38:25.379Z,44.89
2022-09-05T17:41:25.079Z,47.23
2022-09-05T17:44:01.671Z,48.86
2022-09-05T17:46:32.520Z,49.21
2022-09-05T17:49:18.469Z,51.74
2022-09-05T17:52:28.104Z,54.58
2022-09-05T17:54:56.855Z,57.47
2022-09-05T17:57:38.589Z,60.39
2022-09-05T18:00:48.591Z,61.61
2022-09-05T18:04:16.149Z,63.56
2022-09-05T18:06:59.450Z,64.98
2022-09-05T18:10:05.927Z,66.20
2022-09-05T18:13:12.527Z,68.21
2022-09-05T18:16:11.709Z,69.14
2022-09-05T18:21:48.080Z,73.96
2022-09-05T18:24:24.237Z,75.79
2022-09-05T18:26:56.121Z,77.18
2022-09-05T18:29:58.009Z,78.28
2022-09-05T18:32:42.132Z,79.58
2022-09-05T18:35:26.669Z,80.98
2022-09-05T18:38:22.988Z,81.66
2022-09-05T18:41:13.872Z,81.95
2022-09-05T18:44:12.437Z,84.05
2022-09-05T18:46:45.124Z,84.95
2022-09-05T18:50:23.705Z,85.07
2022-09-05T18:52:14.083Z,88.53
2022-09-05T18:54:44.993Z,89.21
2022-09-05T18:57:28.559Z,89.23
2022-09-05T18:59:59.751Z,89.03
2022-09-05T19:02:58.545Z,91.84
2022-09-05T19:05:45.770Z,92.45
2022-09-05T19:08:31.848Z,91.71
2022-09-05T19:11:02.060Z,91.24
2022-09-05T19:14:12.688Z,90.89
2022-09-05T19:16:43.665Z,89.46
2022-09-05T19:19:19.335Z,88.93
2022-09-05T19:21:56.227Z,89.47
2022-09-05T19:24:45.563Z,92.62
2022-09-05T19:30:58.740Z,100.00
2022-09-05T19:36:53.900Z,100.00
2022-09-05T19:37:06.614Z,100.00
2022-09-05T19:37:07.576Z,100.00
2022-09-05T19:39:40.536Z,100.00
2022-09-05T19:47:30.377Z,100.00
2022-09-05T19:47:36.822Z,99.25
2022-09-05T19:47:41.664Z,100.00
2022-09-05T19:50:09.606Z,96.67
2022-09-05T19:52:40.085Z,95.94
2022-09-05T19:55:20.396Z,100.00
2022-09-05T19:57:54.221Z,100.00
2022-09-05T20:00:40.066Z,100.00
2022-09-05T20:03:07.809Z,98.66
2022-09-05T20:05:40.347Z,99.27
2022-09-05T20:08:13.231Z,100.00
2022-09-05T20:10:41.607Z,99.56
2022-09-05T20:13:26.748Z,99.96
2022-09-05T20:15:54.537Z,100.00
2022-09-05T20:18:24.806Z,100.00
2022-09-05T20:20:55.588Z,100.00
2022-09-05T20:23:25.495Z,100.00
2022-09-05T20:25:55.473Z,100.00
2022-09-05T20:28:25.659Z,100.00
2022-09-05T20:30:55.590Z,100.00
2022-09-05T20:33:28.487Z,100.00
2022-09-05T20:40:16.622Z,100.00
2022-09-05T20:43:16.801Z,100.00
2022-09-05T20:43:36.698Z,100.00
2022-09-05T20:44:39.670Z,100.00
2022-09-05T20:52:08.828Z,100.00
2022-09-05T20:54:12.896Z,100.00
2022-09-05T20:54:26.878Z,100.00
2022-09-05T20:55:42.137Z,100.00
2022-09-05T20:58:12.617Z,100.00
2022-09-05T21:01:17.448Z,100.00
2022-09-05T21:03:40.768Z,100.00
2022-09-05T21:06:21.935Z,100.00
2022-09-05T21:08:50.507Z,100.00
2022-09-05T21:11:29.788Z,100.00
2022-09-05T21:14:00.489Z,100.00
2022-09-05T21:16:29.892Z,100.00
2022-09-05T21:18:57.696Z,100.00
2022-09-05T21:21:29.757Z,100.00
2022-09-05T21:24:17.432Z,100.00
2022-09-05T21:26:49.062Z,100.00
2022-09-05T21:29:23.398Z,100.00
2022-09-05T21:31:59.368Z,100.00
2022-09-05T21:34:32.164Z,100.00
2022-09-05T21:37:07.605Z,100.00
2022-09-05T21:39:40.177Z,100.00
2022-09-05T21:42:54.746Z,100.00
2022-09-05T21:47:49.163Z,100.00
2022-09-05T21:47:53.796Z,100.00
2022-09-05T21:50:23.985Z,100.00
2022-09-05T21:53:43.230Z,100.00
2022-09-05T21:59:21.249Z,100.00
2022-09-05T21:59:26.230Z,100.00
2022-09-05T22:01:51.555Z,100.00
2022-09-05T22:04:17.430Z,100.00
2022-09-05T22:06:48.654Z,100.00
2022-09-05T22:09:17.186Z,100.00
2022-09-05T22:11:50.082Z,100.00
2022-09-05T22:14:20.396Z,100.00
2022-09-05T22:16:50.344Z,100.00
2022-09-05T22:19:22.778Z,100.00
2022-09-05T22:21:52.741Z,100.00
2022-09-05T22:24:20.842Z,100.00
2022-09-05T22:27:12.538Z,100.00
2022-09-05T22:29:42.962Z,100.00
2022-09-05T22:32:14.987Z,100.00
2022-09-05T22:34:42.615Z,100.00
2022-09-05T22:37:10.111Z,100.00
2022-09-05T22:39:38.245Z,100.00
2022-09-05T22:42:10.687Z,100.00
2022-09-05T22:44:39.692Z,100.00
2022-09-05T22:47:09.546Z,100.00
2022-09-05T22:49:37.513Z,100.00
2022-09-05T22:52:06.211Z,100.00
2022-09-05T22:54:34.028Z,100.00
2022-09-05T22:57:01.614Z,100.00
2022-09-05T22:59:29.257Z,100.00
2022-09-05T23:01:56.828Z,100.00
2022-09-05T23:04:26.147Z,100.00
2022-09-05T23:06:53.707Z,100.00
2022-09-05T23:09:21.281Z,100.00
2022-09-05T23:11:48.896Z,100.00
2022-09-05T23:14:16.379Z,100.00
2022-09-05T23:16:43.917Z,100.00
2022-09-05T23:19:11.437Z,100.00
2022-09-05T23:21:40.264Z,100.00
2022-09-05T23:24:07.845Z,100.00
2022-09-05T23:26:35.351Z,100.00
2022-09-05T23:29:02.827Z,100.00
2022-09-05T23:31:30.343Z,100.00
2022-09-05T23:33:58.191Z,100.00
2022-09-05T23:36:25.759Z,100.00
2022-09-05T23:38:54.623Z,100.00
2022-09-05T23:41:29.981Z,100.00
2022-09-05T23:43:57.513Z,100.00
2022-09-05T23:46:25.100Z,100.00
2022-09-05T23:48:52.587Z,100.00
2022-09-05T23:51:20.094Z,100.00
2022-09-05T23:53:47.548Z,100.00
2022-09-05T23:56:16.504Z,100.00
2022-09-05T23:58:43.968Z,100.00
